Time;durP1;ratioP1;P1;durP2;ratioP2;P2;SDS_P1;SDS_P2;PMS_P1;PMS_P2;Temp;Humidity;BMP_temperature;BMP_pressure;BME280_temperature;BME280_humidity;BME280_pressure;Samples;Min_cycle;Max_cycle;Signal;HPM_P1;HPM_P2
2023/03/30 00:01:13;;;;;;;0.30;0.30;;;;;;;18.81;45.44;100352.50;5137985;27;20410;-36
2023/03/30 00:03:41;;;;;;;0.30;0.30;;;;;;;18.81;45.44;100341.47;5137197;27;20070;-37
2023/03/30 00:06:07;;;;;;;0.25;0.25;;;;;;;18.80;45.64;100348.09;5118871;27;20061;-36
2023/03/30 00:08:33;;;;;;;0.30;0.30;;;;;;;18.80;45.48;100343.41;5117580;27;20038;-36
2023/03/30 00:11:04;;;;;;;0.20;0.20;;;;;;;18.80;45.66;100342.59;5118300;27;20042;-36
2023/03/30 00:13:31;;;;;;;0.30;0.30;;;;;;;18.81;45.65;100338.69;5118570;27;20099;-36
2023/03/30 00:15:57;;;;;;;0.30;0.30;;;;;;;18.79;45.54;100322.44;5100283;27;20101;-36
2023/03/30 00:18:23;;;;;;;0.20;0.20;;;;;;;18.81;45.43;100319.38;5097820;28;20062;-36
2023/03/30 00:20:50;;;;;;;0.30;0.30;;;;;;;18.81;45.40;100322.16;5097909;28;20175;-36
2023/03/30 00:23:17;;;;;;;0.30;0.30;;;;;;;18.81;45.55;100324.91;5117857;27;20116;-36
2023/03/30 00:25:42;;;;;;;0.20;0.20;;;;;;;18.82;45.44;100328.47;5115420;27;20511;-36
2023/03/30 00:28:08;;;;;;;0.30;0.30;;;;;;;18.80;45.46;100324.09;5115819;27;20375;-36
2023/03/30 00:30:35;;;;;;;0.20;0.20;;;;;;;18.81;45.57;100335.94;5115731;28;20051;-36
2023/03/30 00:33:02;;;;;;;0.30;0.30;;;;;;;18.80;45.44;100343.41;5130844;27;20091;-37
2023/03/30 00:35:29;;;;;;;0.30;0.30;;;;;;;18.79;45.41;100341.75;5117923;27;20050;-36
2023/03/30 00:38:00;;;;;;;0.30;0.30;;;;;;;18.80;45.49;100337.88;5118042;27;20035;-36
2023/03/30 00:40:26;;;;;;;0.20;0.20;;;;;;;18.81;45.45;100346.97;5100664;27;20536;-37
2023/03/30 00:43:05;;;;;;;0.20;0.20;;;;;;;18.80;45.40;100335.13;5136396;27;20071;-36
2023/03/30 00:45:32;;;;;;;0.20;0.20;;;;;;;18.81;45.42;100330.44;5118908;27;20103;-36
2023/03/30 00:48:02;;;;;;;0.20;0.20;;;;;;;18.80;45.62;100320.50;5117435;27;20426;-37
2023/03/30 00:50:40;;;;;;;0.30;0.30;;;;;;;18.80;45.29;100309.47;5117356;27;20288;-36
2023/03/30 00:53:10;;;;;;;0.30;0.30;;;;;;;18.79;45.39;100297.63;5136231;27;20054;-37
2023/03/30 00:55:37;;;;;;;0.30;0.30;;;;;;;18.80;45.65;100306.72;5117309;27;20058;-37
2023/03/30 00:58:05;;;;;;;0.30;0.30;;;;;;;18.81;45.48;100291.81;5117370;27;20352;-36
2023/03/30 01:00:32;;;;;;;0.20;0.20;;;;;;;18.80;45.63;100288.22;5117106;27;20042;-36
2023/03/30 01:03:00;;;;;;;0.20;0.20;;;;;;;18.79;45.49;100283.84;5136065;27;20043;-36
2023/03/30 01:05:27;;;;;;;0.20;0.20;;;;;;;18.80;45.48;100285.47;5136114;27;20226;-36
2023/03/30 01:07:53;;;;;;;0.30;0.30;;;;;;;18.80;45.72;100285.47;5135725;27;20046;-36
2023/03/30 01:10:19;;;;;;;0.30;0.30;;;;;;;18.80;45.62;100288.22;5135916;27;20507;-36
2023/03/30 01:12:45;;;;;;;0.30;0.30;;;;;;;18.80;45.38;100296.50;5135653;27;20518;-36
2023/03/30 01:15:11;;;;;;;0.22;0.22;;;;;;;18.80;45.53;100295.69;5111652;27;20062;-36
2023/03/30 01:17:53;;;;;;;0.30;0.30;;;;;;;18.80;45.36;100290.16;5123423;27;20051;-36
2023/03/30 01:20:52;;;;;;;0.20;0.20;;;;;;;18.80;45.67;100288.22;5129439;27;20134;-36
2023/03/30 01:23:38;;;;;;;0.30;0.30;;;;;;;18.80;45.55;100291.00;5101535;28;20100;-36
2023/03/30 01:26:43;;;;;;;0.30;0.30;;;;;;;18.80;45.65;100292.94;5114792;28;20047;-36
2023/03/30 01:29:30;;;;;;;0.20;0.20;;;;;;;18.79;45.71;100285.78;5101604;28;20062;-36
2023/03/30 01:32:10;;;;;;;0.25;0.25;;;;;;;18.79;45.74;100294.03;5119694;27;20051;-36
2023/03/30 01:34:50;;;;;;;0.20;0.20;;;;;;;18.80;45.45;100301.19;5136515;27;20074;-36
2023/03/30 01:37:34;;;;;;;0.30;0.30;;;;;;;18.80;45.67;100298.44;5118076;27;20053;-37
2023/03/30 01:40:21;;;;;;;0.30;0.30;;;;;;;18.79;45.45;100299.56;5135845;27;20061;-36
2023/03/30 01:43:10;;;;;;;0.30;0.30;;;;;;;18.80;45.70;100303.97;5100720;28;20043;-37
2023/03/30 01:45:43;;;;;;;0.30;0.30;;;;;;;18.79;45.76;100294.88;5100837;28;20217;-36
2023/03/30 01:48:17;;;;;;;0.30;0.30;;;;;;;18.80;45.44;100295.69;5096723;28;20043;-36
2023/03/30 01:50:49;;;;;;;0.30;0.30;;;;;;;18.79;45.63;100288.53;5124260;27;20544;-37
2023/03/30 01:53:22;;;;;;;0.30;0.30;;;;;;;18.77;45.61;100288.81;5116648;27;20047;-36
2023/03/30 01:55:54;;;;;;;0.30;0.30;;;;;;;18.80;45.49;100298.44;5136043;27;20054;-36
2023/03/30 01:58:30;;;;;;;0.30;0.30;;;;;;;18.79;45.61;100294.88;5117526;27;20046;-36
2023/03/30 02:00:57;;;;;;;0.30;0.30;;;;;;;18.79;45.65;100289.34;5135566;27;20039;-36
2023/03/30 02:03:27;;;;;;;0.20;0.20;;;;;;;18.79;45.44;100288.53;5135610;27;20047;-36
2023/03/30 02:05:57;;;;;;;0.30;0.30;;;;;;;18.80;45.44;100276.38;5136072;27;20051;-36
2023/03/30 02:08:25;;;;;;;0.20;0.20;;;;;;;18.79;45.46;100274.75;5135765;27;20062;-36
2023/03/30 02:10:52;;;;;;;0.30;0.30;;;;;;;18.79;45.61;100278.31;5135290;27;20302;-36
2023/03/30 02:13:18;;;;;;;0.20;0.20;;;;;;;18.79;45.65;100278.31;5116889;27;20051;-36
2023/03/30 02:15:47;;;;;;;0.30;0.30;;;;;;;18.79;45.50;100266.47;5080113;28;20193;-36
2023/03/30 02:18:13;;;;;;;0.20;0.20;;;;;;;18.79;45.41;100264.53;5115704;27;20494;-36
2023/03/30 02:20:39;;;;;;;0.30;0.30;;;;;;;18.78;45.77;100262.03;5126346;27;20664;-36
2023/03/30 02:23:05;;;;;;;0.30;0.30;;;;;;;18.79;45.66;100261.75;5129519;27;20061;-36
2023/03/30 02:25:33;;;;;;;0.20;0.20;;;;;;;18.79;45.73;100250.72;5131592;27;20137;-36
2023/03/30 02:27:59;;;;;;;0.30;0.30;;;;;;;18.80;45.63;100248.78;5113028;28;20051;-36
2023/03/30 02:30:24;;;;;;;0.30;0.30;;;;;;;18.80;45.40;100243.28;5120146;27;20050;-37
2023/03/30 02:32:54;;;;;;;0.30;0.30;;;;;;;18.78;45.80;100223.41;5136527;27;20042;-37
2023/03/30 02:38:40;;;;;;;0.30;0.30;;;;;;;18.79;45.62;100227.84;5174865;27;20119;-37
2023/03/30 02:41:32;;;;;;;0.30;0.30;;;;;;;18.78;45.14;100227.03;5140181;27;20078;-36
2023/03/30 02:44:24;;;;;;;0.30;0.30;;;;;;;18.78;45.79;100227.03;5137898;27;20099;-36
2023/03/30 02:49:45;;;;;;;0.30;0.30;;;;;;;18.78;45.50;100223.41;5174626;27;20205;-36
2023/03/30 02:52:32;;;;;;;0.30;0.30;;;;;;;18.79;45.50;100230.59;5120960;27;20384;-36
2023/03/30 02:55:19;;;;;;;0.20;0.20;;;;;;;18.79;45.54;100219.56;5153117;27;20489;-37
2023/03/30 02:58:04;;;;;;;0.30;0.30;;;;;;;18.79;45.70;100214.06;5137846;27;20485;-36
2023/03/30 03:00:42;;;;;;;0.30;0.30;;;;;;;18.79;45.64;100205.78;5153620;27;20089;-37
2023/03/30 03:03:15;;;;;;;0.30;0.30;;;;;;;18.79;45.65;100203.84;5134647;27;20038;-36
2023/03/30 03:05:42;;;;;;;0.30;0.30;;;;;;;18.79;45.71;100200.25;5153184;27;20062;-36
2023/03/30 03:08:08;;;;;;;0.30;0.30;;;;;;;18.78;45.81;100204.09;5153357;27;20050;-36
2023/03/30 03:10:35;;;;;;;0.30;0.30;;;;;;;18.79;45.48;100203.84;5134817;27;20111;-36
2023/03/30 03:13:01;;;;;;;0.20;0.20;;;;;;;18.79;45.80;100206.59;5153605;27;20049;-37
2023/03/30 03:15:27;;;;;;;0.20;0.20;;;;;;;18.79;45.55;100211.28;5138447;27;20445;-37
2023/03/30 03:17:53;;;;;;;0.30;0.30;;;;;;;18.78;45.78;100220.66;5149220;27;20458;-37
2023/03/30 03:20:19;;;;;;;0.20;0.20;;;;;;;18.79;45.48;100225.09;5153245;27;20450;-37
2023/03/30 03:22:45;;;;;;;0.20;0.20;;;;;;;18.79;45.59;100220.38;5152771;27;20521;-37
2023/03/30 03:25:10;;;;;;;0.30;0.30;;;;;;;18.78;45.73;100221.50;5153271;27;20095;-37
2023/03/30 03:27:36;;;;;;;0.30;0.30;;;;;;;18.78;45.57;100213.22;5152705;27;20064;-37
2023/03/30 03:30:02;;;;;;;0.20;0.20;;;;;;;18.78;45.75;100202.19;5152534;27;20051;-37
2023/03/30 03:32:28;;;;;;;0.30;0.30;;;;;;;18.78;45.49;100210.47;5119576;27;20043;-36
2023/03/30 03:34:54;;;;;;;0.30;0.30;;;;;;;18.78;45.65;100210.47;5132220;27;20058;-36
2023/03/30 03:37:20;;;;;;;0.30;0.30;;;;;;;18.79;45.53;100206.59;5131900;27;20051;-36
2023/03/30 03:39:45;;;;;;;0.25;0.25;;;;;;;18.79;45.65;100209.34;5132271;27;20431;-36
2023/03/30 03:42:11;;;;;;;0.30;0.30;;;;;;;18.78;45.63;100184.81;5131888;27;20053;-36
2023/03/30 03:44:39;;;;;;;0.30;0.30;;;;;;;18.78;45.49;100182.88;5131226;27;20043;-36
2023/03/30 03:47:05;;;;;;;0.20;0.20;;;;;;;18.78;45.71;100193.94;5131827;27;20042;-36
2023/03/30 03:49:31;;;;;;;0.30;0.30;;;;;;;18.77;45.51;100192.25;5130410;27;20242;-36
2023/03/30 03:51:56;;;;;;;0.30;0.30;;;;;;;18.79;45.67;100194.75;5112407;27;20043;-36
2023/03/30 03:54:22;;;;;;;0.20;0.20;;;;;;;18.78;45.79;100191.16;5110930;28;20074;-36
2023/03/30 03:56:48;;;;;;;0.20;0.20;;;;;;;18.79;45.57;100189.22;5111009;28;20074;-36
2023/03/30 03:59:13;;;;;;;0.20;0.20;;;;;;;18.78;45.48;100184.81;5106932;28;20139;-36
2023/03/30 04:01:39;;;;;;;0.20;0.20;;;;;;;18.78;45.84;100179.28;5097254;28;20055;-36
2023/03/30 04:04:05;;;;;;;0.30;0.30;;;;;;;18.78;45.73;100169.09;5096929;28;20047;-36
2023/03/30 04:06:31;;;;;;;0.30;0.30;;;;;;;18.79;45.87;100179.00;5097038;28;20055;-37
2023/03/30 04:08:56;;;;;;;0.30;0.30;;;;;;;18.78;45.56;100177.38;5096394;28;20061;-36
2023/03/30 04:11:22;;;;;;;0.20;0.20;;;;;;;18.79;45.54;100180.94;5096903;28;20792;-36
2023/03/30 04:13:48;;;;;;;0.30;0.30;;;;;;;18.79;45.49;100179.00;5097256;27;20059;-36
2023/03/30 04:16:14;;;;;;;0.30;0.30;;;;;;;18.79;45.42;100162.47;5137737;27;20043;-37
2023/03/30 04:18:40;;;;;;;0.30;0.30;;;;;;;18.79;45.75;100167.97;5137890;27;20089;-37
2023/03/30 04:21:11;;;;;;;0.30;0.30;;;;;;;18.79;45.53;100167.16;5113884;27;20047;-36
2023/03/30 04:23:38;;;;;;;0.20;0.20;;;;;;;18.79;45.56;100161.63;5079628;28;20059;-36
2023/03/30 04:26:06;;;;;;;0.20;0.20;;;;;;;18.78;45.48;100158.06;5078654;28;20055;-36
2023/03/30 04:28:32;;;;;;;0.20;0.20;;;;;;;18.78;45.78;100159.97;5078657;28;20044;-36
2023/03/30 04:31:00;;;;;;;0.30;0.30;;;;;;;18.78;45.63;100173.75;5114930;28;20082;-36
2023/03/30 04:33:26;;;;;;;0.20;0.20;;;;;;;18.78;45.80;100168.25;5095688;28;20043;-38
2023/03/30 04:35:52;;;;;;;0.30;0.30;;;;;;;18.78;45.69;100171.00;5109016;28;20111;-37
2023/03/30 04:38:21;;;;;;;0.22;0.22;;;;;;;18.77;45.77;100170.19;5110984;28;20044;-36
2023/03/30 04:40:48;;;;;;;0.30;0.30;;;;;;;18.80;45.57;100163.28;5083014;28;20202;-41
2023/03/30 04:43:18;;;;;;;0.20;0.20;;;;;;;18.78;45.73;100160.81;5108022;28;20063;-37
2023/03/30 04:45:52;;;;;;;0.28;0.28;;;;;;;18.79;45.70;100153.38;5095403;28;20043;-36
2023/03/30 04:48:19;;;;;;;0.30;0.30;;;;;;;18.78;45.67;100171.84;5085676;28;20039;-36
2023/03/30 04:50:46;;;;;;;0.30;0.30;;;;;;;18.78;45.51;100168.25;5093326;28;20051;-36
2023/03/30 04:53:14;;;;;;;0.20;0.20;;;;;;;18.78;45.77;100174.63;5099072;28;20432;-36
2023/03/30 04:55:40;;;;;;;0.20;0.20;;;;;;;18.78;45.71;100171.84;5086899;28;20490;-36
2023/03/30 04:58:06;;;;;;;0.30;0.30;;;;;;;18.78;45.78;100173.75;5061621;28;20586;-36
2023/03/30 05:00:32;;;;;;;0.20;0.20;;;;;;;18.79;45.66;100169.91;5111613;28;20043;-36
2023/03/30 05:02:58;;;;;;;0.20;0.20;;;;;;;18.78;45.60;100166.34;5116721;28;20047;-36
2023/03/30 05:05:24;;;;;;;0.30;0.30;;;;;;;18.79;45.72;100175.44;5112915;28;20081;-36
2023/03/30 05:07:50;;;;;;;0.20;0.20;;;;;;;18.78;45.68;100171.00;5108793;28;20644;-36
2023/03/30 05:10:16;;;;;;;0.30;0.30;;;;;;;18.81;45.86;100167.66;5106328;28;20097;-37
2023/03/30 05:12:42;;;;;;;0.30;0.30;;;;;;;18.82;45.48;100166.53;5108339;28;20102;-37
2023/03/30 05:15:08;;;;;;;0.30;0.30;;;;;;;18.88;45.52;100176.41;5127740;27;20043;-40
2023/03/30 05:17:33;;;;;;;0.30;0.30;;;;;;;18.88;45.99;100175.59;5137128;27;20054;-39
2023/03/30 05:19:59;;;;;;;0.20;0.20;;;;;;;18.96;47.36;100170.22;5088468;28;20216;-41
2023/03/30 05:22:25;;;;;;;0.20;0.20;;;;;;;19.00;46.53;100184.25;5113667;28;20051;-39
2023/03/30 05:24:51;;;;;;;0.20;0.20;;;;;;;19.02;47.11;100185.59;5105140;28;20145;-37
2023/03/30 05:27:17;;;;;;;0.20;0.20;;;;;;;18.98;47.15;100181.78;5111156;28;20462;-36
2023/03/30 05:29:43;;;;;;;0.20;0.20;;;;;;;18.94;47.08;100186.25;5096454;28;20084;-36
2023/03/30 05:32:09;;;;;;;0.20;0.20;;;;;;;18.90;47.02;100176.91;5113796;27;20052;-36
2023/03/30 05:34:35;;;;;;;0.28;0.28;;;;;;;18.90;46.85;100181.63;5102285;28;20058;-37
2023/03/30 05:37:00;;;;;;;0.20;0.20;;;;;;;18.89;46.89;100185.50;5108242;27;20051;-37
2023/03/30 05:39:26;;;;;;;0.20;0.20;;;;;;;18.89;46.96;100180.81;5107202;28;20425;-36
2023/03/30 05:41:52;;;;;;;0.30;0.30;;;;;;;18.90;46.71;100178.84;5107831;28;20120;-37
2023/03/30 05:44:18;;;;;;;0.20;0.20;;;;;;;18.90;47.11;100178.84;5110239;28;20032;-36
2023/03/30 05:46:47;;;;;;;0.22;0.22;;;;;;;18.90;46.79;100181.63;5100713;28;20176;-37
2023/03/30 05:49:12;;;;;;;0.20;0.20;;;;;;;18.89;46.98;100191.84;5112246;28;20482;-37
2023/03/30 05:51:38;;;;;;;0.20;0.20;;;;;;;18.91;46.80;100188.78;5105260;27;20511;-37
2023/03/30 05:54:04;;;;;;;0.20;0.20;;;;;;;18.90;46.72;100190.72;5111118;28;20039;-36
2023/03/30 05:56:29;;;;;;;0.28;0.28;;;;;;;18.91;46.57;100194.28;5112710;28;20043;-36
2023/03/30 05:58:55;;;;;;;0.30;0.30;;;;;;;18.93;46.67;100200.34;5098124;28;20197;-36
2023/03/30 06:01:21;;;;;;;0.20;0.20;;;;;;;18.95;46.97;100209.13;5107020;28;20387;-37
2023/03/30 06:03:46;;;;;;;0.28;0.28;;;;;;;18.97;46.79;100204.16;5103796;28;20084;-37
2023/03/30 06:06:13;;;;;;;0.25;0.25;;;;;;;18.97;46.63;100204.97;5108315;27;20047;-36
2023/03/30 06:08:40;;;;;;;0.20;0.20;;;;;;;18.96;46.84;100199.75;5080171;28;20086;-37
2023/03/30 06:11:06;;;;;;;0.30;0.30;;;;;;;18.97;46.65;100196.69;5090433;28;20055;-37
2023/03/30 06:13:32;;;;;;;0.20;0.20;;;;;;;18.96;46.57;100202.53;5103578;27;20357;-37
2023/03/30 06:15:58;;;;;;;0.28;0.28;;;;;;;18.95;46.73;100200.84;5098085;27;20446;-37
2023/03/30 06:18:27;;;;;;;0.30;0.30;;;;;;;18.96;46.67;100205.28;5084107;28;20703;-36
2023/03/30 06:20:53;;;;;;;0.20;0.20;;;;;;;19.04;46.48;100210.09;5086274;28;20043;-36
2023/03/30 06:23:19;;;;;;;0.30;0.30;;;;;;;19.10;46.70;100202.59;5108962;27;20039;-37
2023/03/30 06:25:46;;;;;;;0.30;0.30;;;;;;;19.10;46.62;100208.94;5105654;27;20035;-37
2023/03/30 06:28:11;;;;;;;0.30;0.30;;;;;;;19.05;46.75;100206.25;5090360;28;20039;-36
2023/03/30 06:30:37;;;;;;;0.20;0.20;;;;;;;19.03;46.79;100206.53;5107192;27;20047;-37
2023/03/30 06:33:03;;;;;;;0.30;0.30;;;;;;;19.01;46.86;100205.22;5086330;28;20651;-37
2023/03/30 06:35:29;;;;;;;0.20;0.20;;;;;;;19.02;46.61;100206.84;5104230;27;20082;-36
2023/03/30 06:37:55;;;;;;;0.30;0.30;;;;;;;19.02;46.67;100215.94;5105579;27;20182;-36
2023/03/30 06:40:21;;;;;;;0.30;0.30;;;;;;;19.03;46.92;100219.50;5104229;28;20055;-36
2023/03/30 06:42:46;;;;;;;0.20;0.20;;;;;;;19.03;46.79;100222.28;5104124;27;20133;-36
2023/03/30 06:45:13;;;;;;;0.30;0.30;;;;;;;19.02;46.77;100215.94;5102415;27;20618;-37
2023/03/30 06:47:40;;;;;;;0.20;0.20;;;;;;;19.02;46.58;100221.47;5103520;27;20043;-37
2023/03/30 06:50:06;;;;;;;0.20;0.20;;;;;;;19.02;46.66;100224.22;5096669;27;20228;-37
2023/03/30 06:52:34;;;;;;;0.20;0.20;;;;;;;19.02;46.59;100228.91;5093355;27;20050;-37
2023/03/30 06:55:00;;;;;;;0.20;0.20;;;;;;;19.02;46.65;100232.50;5103047;27;20506;-37
2023/03/30 06:57:26;;;;;;;0.20;0.20;;;;;;;19.02;46.95;100231.69;5074920;28;20252;-36
2023/03/30 06:59:52;;;;;;;0.30;0.30;;;;;;;19.04;46.56;100230.28;5085812;27;20100;-36
2023/03/30 07:02:17;;;;;;;0.30;0.30;;;;;;;19.04;46.64;100230.28;5087997;27;20047;-36
2023/03/30 07:04:45;;;;;;;0.28;0.28;;;;;;;19.05;46.49;100231.09;5077182;27;20054;-36
2023/03/30 07:07:12;;;;;;;0.20;0.20;;;;;;;19.04;46.64;100229.44;5080595;27;20106;-36
2023/03/30 07:09:37;;;;;;;0.28;0.28;;;;;;;19.04;46.66;100226.66;5088106;27;20050;-37
2023/03/30 07:12:03;;;;;;;0.30;0.30;;;;;;;19.05;46.57;100239.38;5092325;27;20264;-37
2023/03/30 07:14:30;;;;;;;0.28;0.28;;;;;;;19.04;46.50;100237.72;5097895;28;20054;-37
2023/03/30 07:16:56;;;;;;;0.30;0.30;;;;;;;19.05;46.74;100239.38;5073458;28;20380;-37
2023/03/30 07:19:22;;;;;;;0.20;0.20;;;;;;;19.07;46.48;100241.81;5097799;27;20054;-37
2023/03/30 07:21:47;;;;;;;0.20;0.20;;;;;;;19.07;46.58;100241.81;5080809;28;20043;-37
2023/03/30 07:24:13;;;;;;;0.30;0.30;;;;;;;19.07;46.32;100242.63;5098464;27;20498;-37
2023/03/30 07:26:39;;;;;;;0.30;0.30;;;;;;;19.07;46.32;100248.16;5098851;27;20047;-36
2023/03/30 07:29:05;;;;;;;0.30;0.30;;;;;;;19.07;46.58;100248.16;5105764;27;20563;-38
2023/03/30 07:31:31;;;;;;;0.30;0.30;;;;;;;19.07;46.38;100261.97;5086452;28;20040;-36
2023/03/30 07:33:57;;;;;;;0.30;0.30;;;;;;;19.08;46.62;100255.31;5087843;28;20136;-37
2023/03/30 07:36:22;;;;;;;0.30;0.30;;;;;;;19.07;46.44;100261.97;5109869;28;20051;-36
2023/03/30 07:38:48;;;;;;;0.30;0.30;;;;;;;19.07;46.71;100258.38;5110010;28;20054;-36
2023/03/30 07:41:15;;;;;;;0.30;0.30;;;;;;;19.09;46.54;100267.19;5104393;28;20043;-36
2023/03/30 07:43:40;;;;;;;0.30;0.30;;;;;;;19.09;46.53;100270.78;5106016;27;20059;-37
2023/03/30 07:46:08;;;;;;;0.30;0.30;;;;;;;19.08;46.35;100279.34;5103220;28;20051;-36
2023/03/30 07:48:34;;;;;;;0.20;0.20;;;;;;;19.08;46.58;100280.16;5087516;28;20184;-37
2023/03/30 07:51:02;;;;;;;0.30;0.30;;;;;;;19.13;46.93;100285.63;5092185;28;20044;-36
2023/03/30 07:53:28;;;;;;;0.20;0.20;;;;;;;19.13;46.74;100304.94;5094962;27;20039;-36
2023/03/30 07:55:54;;;;;;;0.20;0.20;;;;;;;19.12;46.66;100308.81;5100421;28;20440;-37
2023/03/30 07:58:20;;;;;;;0.20;0.20;;;;;;;19.11;46.73;100309.13;5103473;28;20059;-37
2023/03/30 08:00:47;;;;;;;0.20;0.20;;;;;;;19.10;46.76;100313.81;5101884;27;20803;-37
2023/03/30 08:03:13;;;;;;;0.20;0.20;;;;;;;19.10;46.42;100300.00;5098287;27;20550;-36
2023/03/30 08:05:39;;;;;;;0.47;0.47;;;;;;;19.10;46.46;100308.28;5096018;27;20039;-37
2023/03/30 08:08:04;;;;;;;0.20;0.20;;;;;;;19.11;46.38;100309.13;5088850;27;20288;-36
2023/03/30 08:10:30;;;;;;;0.30;0.30;;;;;;;19.11;46.64;100309.94;5093903;27;20043;-39
2023/03/30 08:12:56;;;;;;;0.20;0.20;;;;;;;19.12;46.41;100319.03;5099651;27;20045;-39
2023/03/30 08:15:21;;;;;;;0.30;0.30;;;;;;;19.13;46.66;100320.66;5097453;27;20403;-39
2023/03/30 08:17:47;;;;;;;0.20;0.20;;;;;;;19.11;46.39;100317.41;5100038;27;20047;-39
2023/03/30 08:20:13;;;;;;;0.30;0.30;;;;;;;19.12;46.34;100321.78;5093603;27;20251;-39
2023/03/30 08:22:39;;;;;;;0.22;0.22;;;;;;;19.13;46.45;100318.75;5096013;27;20183;-39
2023/03/30 08:25:05;;;;;;;0.30;0.30;;;;;;;19.14;46.50;100325.09;5095738;27;21605;-39
2023/03/30 08:27:31;;;;;;;0.30;0.30;;;;;;;19.14;46.58;100319.56;5096823;27;20057;-40
2023/03/30 08:29:56;;;;;;;0.30;0.30;;;;;;;19.14;46.45;100319.56;5093879;27;20046;-39
2023/03/30 08:32:22;;;;;;;0.28;0.28;;;;;;;19.14;46.32;100312.09;5092382;27;20451;-39
2023/03/30 08:34:48;;;;;;;0.20;0.20;;;;;;;19.14;46.24;100314.88;5095670;27;20055;-39
2023/03/30 08:37:14;;;;;;;0.20;0.20;;;;;;;19.15;46.44;100307.41;5086692;27;20411;-39
2023/03/30 08:39:39;;;;;;;0.20;0.20;;;;;;;19.13;46.18;100302.19;5101358;27;20043;-41
2023/03/30 08:42:35;;;;;;;0.20;0.20;;;;;;;19.15;46.26;100307.41;5097629;27;20156;-39
2023/03/30 08:45:04;;;;;;;0.28;0.28;;;;;;;19.16;46.41;100303.53;5089185;27;20050;-39
2023/03/30 08:47:32;;;;;;;0.20;0.20;;;;;;;19.15;46.40;100294.41;5085867;27;20518;-39
2023/03/30 08:50:21;;;;;;;0.20;0.20;;;;;;;19.16;46.48;100292.47;5090282;28;20499;-39
2023/03/30 08:52:47;;;;;;;0.20;0.20;;;;;;;19.16;46.24;100304.34;5089807;27;20054;-39
2023/03/30 08:55:20;;;;;;;0.20;0.20;;;;;;;19.17;46.38;100305.16;5107246;27;20043;-39
2023/03/30 08:58:26;;;;;;;0.20;0.20;;;;;;;19.16;46.47;100304.34;5097446;27;20148;-39
2023/03/30 09:00:59;;;;;;;0.20;0.20;;;;;;;19.16;46.63;100309.03;5083349;27;20400;-39
2023/03/30 09:03:48;;;;;;;0.30;0.30;;;;;;;19.16;46.24;100314.56;5104362;27;20054;-39
2023/03/30 09:06:25;;;;;;;0.30;0.30;;;;;;;19.16;46.39;100320.91;5106728;27;20043;-39
2023/03/30 09:08:51;;;;;;;0.20;0.20;;;;;;;19.16;46.31;100331.13;5109864;27;20046;-39
2023/03/30 09:11:32;;;;;;;0.30;0.30;;;;;;;19.16;46.34;100334.69;5105888;27;20142;-39
2023/03/30 09:14:00;;;;;;;0.30;0.30;;;;;;;19.16;46.28;100356.78;5087558;27;20385;-39
2023/03/30 09:16:35;;;;;;;0.20;0.20;;;;;;;19.16;46.07;100362.31;5097027;27;20048;-39
2023/03/30 09:19:02;;;;;;;0.25;0.25;;;;;;;19.16;46.28;100364.25;5092629;28;20049;-39
2023/03/30 09:21:30;;;;;;;0.28;0.28;;;;;;;19.16;46.26;100354.03;5088420;27;20043;-39
2023/03/30 09:23:57;;;;;;;0.20;0.20;;;;;;;19.16;46.37;100359.53;5106496;27;20046;-39
2023/03/30 09:26:35;;;;;;;0.30;0.30;;;;;;;19.15;46.34;100360.66;5108282;28;20082;-39
2023/03/30 09:29:05;;;;;;;0.20;0.20;;;;;;;19.16;46.39;100361.50;5104650;27;20907;-39
2023/03/30 09:31:42;;;;;;;0.30;0.30;;;;;;;19.16;46.39;100370.59;5103904;27;20123;-39
2023/03/30 09:34:31;;;;;;;0.20;0.20;;;;;;;19.15;46.25;100377.22;5084177;28;20126;-39
2023/03/30 09:37:03;;;;;;;0.20;0.20;;;;;;;19.16;46.03;100369.78;5088526;27;20535;-39
2023/03/30 09:39:30;;;;;;;0.30;0.30;;;;;;;19.19;47.18;100375.53;5096267;27;20605;-41
2023/03/30 09:42:24;;;;;;;0.20;0.20;;;;;;;19.26;48.47;100378.75;5083192;27;20277;-46
2023/03/30 09:44:59;;;;;;;0.20;0.20;;;;;;;19.33;48.84;100391.38;5086174;27;20078;-54
2023/03/30 09:47:28;;;;;;;0.22;0.22;;;;;;;19.43;48.31;100397.63;5090503;28;20278;-41
2023/03/30 09:49:56;;;;;;;0.20;0.20;;;;;;;19.40;48.42;100392.66;5062440;28;20050;-43
2023/03/30 09:52:24;;;;;;;0.30;0.30;;;;;;;19.37;47.76;100404.31;5088200;28;20198;-41
2023/03/30 09:54:50;;;;;;;0.20;0.20;;;;;;;19.30;47.81;100406.63;5093129;27;20035;-41
2023/03/30 09:57:30;;;;;;;0.30;0.30;;;;;;;19.29;47.51;100407.72;5104853;27;20088;-41
2023/03/30 09:59:58;;;;;;;0.22;0.22;;;;;;;19.26;47.81;100411.06;5108013;27;20051;-41
2023/03/30 10:02:26;;;;;;;0.20;0.20;;;;;;;19.25;47.80;100409.41;5087533;28;20043;-41
2023/03/30 10:07:34;;;;;;;0.25;0.25;;;;;;;19.23;47.70;100415.22;5144960;27;20144;-38
2023/03/30 10:10:11;;;;;;;0.20;0.20;;;;;;;19.23;47.75;100415.22;5096114;27;20039;-40
2023/03/30 10:12:37;;;;;;;0.20;0.20;;;;;;;19.23;47.57;100404.19;5116090;27;20043;-38
2023/03/30 10:15:04;;;;;;;0.20;0.20;;;;;;;19.22;47.31;100397.03;5124152;27;20091;-39
2023/03/30 10:17:30;;;;;;;0.30;0.30;;;;;;;19.24;47.47;100394.78;5121559;27;20062;-38
2023/03/30 10:20:23;;;;;;;0.30;0.30;;;;;;;19.24;47.66;100393.97;5116702;27;20099;-38
2023/03/30 10:22:52;;;;;;;0.20;0.20;;;;;;;19.23;47.38;100397.84;5089554;27;20724;-38
2023/03/30 10:25:22;;;;;;;0.20;0.20;;;;;;;19.23;47.38;100398.66;5118263;27;20392;-38
2023/03/30 10:27:52;;;;;;;0.20;0.20;;;;;;;19.25;47.54;100414.94;5116195;27;20048;-39
2023/03/30 10:30:22;;;;;;;0.20;0.20;;;;;;;19.22;47.32;100408.06;5096392;27;20112;-40
2023/03/30 10:32:48;;;;;;;0.55;0.28;;;;;;;19.25;47.51;100412.16;5100671;27;21193;-38
2023/03/30 10:35:20;;;;;;;0.30;0.30;;;;;;;19.20;47.98;100412.22;5100752;27;20259;-38
2023/03/30 10:37:46;;;;;;;0.20;0.20;;;;;;;19.25;47.60;100410.22;5061194;27;20546;-38
2023/03/30 10:40:25;;;;;;;0.30;0.30;;;;;;;19.27;47.51;100415.47;5099291;27;20143;-38
2023/03/30 10:42:54;;;;;;;0.30;0.30;;;;;;;19.26;47.35;100420.19;5087865;27;20124;-39
2023/03/30 10:45:43;;;;;;;0.20;0.20;;;;;;;19.27;47.22;100416.28;5073887;27;20072;-38
2023/03/30 10:48:49;;;;;;;0.22;0.22;;;;;;;19.29;47.34;100419.56;5093432;27;20473;-41
2023/03/30 10:51:26;;;;;;;0.25;0.25;;;;;;;19.29;47.26;100436.13;5088803;27;20044;-39
2023/03/30 10:54:20;;;;;;;0.20;0.20;;;;;;;19.31;47.65;100411.00;5094468;27;20090;-38
2023/03/30 10:56:50;;;;;;;0.20;0.20;;;;;;;19.31;47.11;100416.53;5081453;27;20102;-40
2023/03/30 10:59:46;;;;;;;0.20;0.20;;;;;;;19.29;47.03;100422.31;5102657;27;20152;-39
2023/03/30 11:02:40;;;;;;;0.30;0.30;;;;;;;19.27;47.11;100421.81;5094258;27;20059;-38
2023/03/30 11:05:16;;;;;;;0.30;0.30;;;;;;;19.30;46.99;100412.13;5087053;27;20042;-40
2023/03/30 11:10:21;;;;;;;0.20;0.20;;;;;;;19.29;47.08;100403.00;5149846;27;20124;-37
2023/03/30 11:12:52;;;;;;;0.20;0.20;;;;;;;19.29;47.07;100414.03;5120543;27;20697;-40
2023/03/30 11:15:25;;;;;;;0.30;0.30;;;;;;;19.29;46.99;100414.03;5118709;27;20038;-38
2023/03/30 11:18:04;;;;;;;0.30;0.30;;;;;;;19.28;47.21;100420.69;5137103;27;20038;-39
2023/03/30 11:20:34;;;;;;;0.20;0.20;;;;;;;19.27;47.29;100409.94;5119116;27;20422;-38
2023/03/30 11:23:10;;;;;;;0.30;0.30;;;;;;;19.25;47.23;100413.00;5124556;27;20055;-38
2023/03/30 11:25:45;;;;;;;0.20;0.20;;;;;;;19.26;47.04;100411.06;5126756;27;20055;-38
2023/03/30 11:28:27;;;;;;;0.30;0.30;;;;;;;19.26;47.15;100416.59;5135382;27;20050;-38
2023/03/30 11:30:55;;;;;;;0.20;0.20;;;;;;;19.27;47.10;100421.81;5124347;27;20047;-38
2023/03/30 11:33:33;;;;;;;0.20;0.20;;;;;;;19.25;47.04;100415.75;5119077;27;20042;-38
2023/03/30 11:36:00;;;;;;;;;;;;;;;19.26;46.95;100405.56;5118587;27;20054;-41
2023/03/30 11:38:52;;;;;;;0.22;0.22;;;;;;;19.27;46.99;100398.91;5117036;27;20120;-40
2023/03/30 11:41:22;;;;;;;0.20;0.20;;;;;;;19.26;46.96;100395.31;5095481;27;20654;-38
2023/03/30 11:43:49;;;;;;;0.20;0.20;;;;;;;19.27;47.02;100404.44;5103811;27;20486;-38
2023/03/30 11:46:21;;;;;;;0.28;0.28;;;;;;;19.26;46.98;100411.91;5119852;27;20740;-38
2023/03/30 11:49:11;;;;;;;0.20;0.20;;;;;;;19.27;47.06;100405.25;5120443;27;20039;-38